createdAt,value
2022-10-17T00:01:22.373Z,15.03
2022-10-17T00:04:10.729Z,14.90
2022-10-17T00:09:45.820Z,14.89
2022-10-17T00:15:45.502Z,14.96
2022-10-17T00:21:25.355Z,14.72
2022-10-17T00:27:02.937Z,14.65
2022-10-17T00:32:39.289Z,14.64
2022-10-17T00:38:15.534Z,14.53
2022-10-17T00:44:00.874Z,14.63
2022-10-17T00:49:43.781Z,14.61
2022-10-17T00:55:25.979Z,14.59
2022-10-17T01:01:03.514Z,14.51
2022-10-17T01:06:45.121Z,14.47
2022-10-17T01:15:26.483Z,14.44
2022-10-17T01:21:24.855Z,14.40
2022-10-17T01:27:34.533Z,14.34
2022-10-17T01:36:56.234Z,14.34
2022-10-17T01:42:43.202Z,14.33
2022-10-17T01:48:21.916Z,14.25
2022-10-17T01:54:01.326Z,14.37
2022-10-17T01:59:41.097Z,14.34
2022-10-17T02:05:12.062Z,14.36
2022-10-17T02:08:00.813Z,14.07
2022-10-17T02:13:42.120Z,14.00
2022-10-17T02:19:38.576Z,14.08
2022-10-17T02:25:19.843Z,14.13
2022-10-17T02:28:13.225Z,14.06
2022-10-17T02:36:39.389Z,13.83
2022-10-17T02:42:24.079Z,13.73
2022-10-17T02:48:01.518Z,13.67
2022-10-17T02:53:45.221Z,13.73
2022-10-17T02:59:19.687Z,13.52
2022-10-17T03:04:58.645Z,13.39
2022-10-17T03:07:52.351Z,13.30
2022-10-17T03:13:28.868Z,13.28
2022-10-17T03:16:17.033Z,13.22
2022-10-17T03:21:44.007Z,13.21
2022-10-17T03:27:18.577Z,13.16
2022-10-17T03:30:08.634Z,13.06
2022-10-17T03:32:56.993Z,13.14
2022-10-17T03:38:25.392Z,13.36
2022-10-17T03:44:04.558Z,13.13
2022-10-17T03:49:44.935Z,12.95
2022-10-17T03:58:14.922Z,13.02
2022-10-17T04:01:08.083Z,13.14
2022-10-17T04:03:58.453Z,12.85
2022-10-17T04:06:50.139Z,12.78
2022-10-17T04:12:30.954Z,12.85
2022-10-17T04:18:13.531Z,12.87
2022-10-17T04:23:55.536Z,13.04
2022-10-17T04:29:32.055Z,13.01
2022-10-17T04:32:20.360Z,12.82
2022-10-17T04:37:59.087Z,12.84
2022-10-17T04:43:35.970Z,12.92
2022-10-17T04:46:24.993Z,12.77
2022-10-17T04:52:02.496Z,13.03
2022-10-17T04:54:52.856Z,12.81
2022-10-17T05:00:28.242Z,12.65
2022-10-17T05:06:15.132Z,12.65
2022-10-17T05:11:55.454Z,12.83
2022-10-17T05:17:26.330Z,12.61
2022-10-17T05:20:15.907Z,12.50
2022-10-17T05:25:58.281Z,12.57
2022-10-17T05:28:47.964Z,12.53
2022-10-17T05:31:36.382Z,12.55
2022-10-17T05:37:17.231Z,12.64
2022-10-17T05:40:06.796Z,12.73
2022-10-17T05:42:56.665Z,12.67
2022-10-17T05:48:31.161Z,12.52
2022-10-17T05:51:20.726Z,12.50
2022-10-17T05:57:04.656Z,12.46
2022-10-17T06:02:59.275Z,12.60
2022-10-17T06:05:54.027Z,12.70
2022-10-17T06:08:43.700Z,12.57
2022-10-17T06:14:18.655Z,12.60
2022-10-17T06:17:08.402Z,12.56
2022-10-17T06:22:48.752Z,12.79
2022-10-17T06:28:23.872Z,13.07
2022-10-17T06:31:14.511Z,13.20
2022-10-17T06:42:29.729Z,13.92
2022-10-17T06:48:05.091Z,13.82
2022-10-17T06:50:54.957Z,13.76
2022-10-17T06:56:33.392Z,13.86
2022-10-17T06:59:21.845Z,13.88
2022-10-17T07:02:11.791Z,14.11
2022-10-17T07:10:38.698Z,15.05
2022-10-17T07:16:12.169Z,15.45
2022-10-17T07:21:48.935Z,15.57
2022-10-17T07:27:32.072Z,15.80
2022-10-17T07:33:21.814Z,15.94
2022-10-17T07:38:51.872Z,15.91
2022-10-17T07:44:31.958Z,16.20
2022-10-17T07:47:20.982Z,16.16
2022-10-17T07:50:10.545Z,16.15
2022-10-17T07:53:01.477Z,16.26
2022-10-17T07:55:51.576Z,16.38
2022-10-17T07:58:40.526Z,16.37
2022-10-17T08:04:23.881Z,16.35
2022-10-17T08:12:43.765Z,16.67
2022-10-17T08:15:32.312Z,16.73
2022-10-17T08:18:20.753Z,16.80
2022-10-17T08:23:57.425Z,16.89
2022-10-17T08:26:48.290Z,16.86
2022-10-17T08:32:25.051Z,16.98
2022-10-17T08:38:11.032Z,17.12
2022-10-17T08:44:08.560Z,16.91
2022-10-17T08:46:59.004Z,17.10
2022-10-17T08:49:51.624Z,17.26
2022-10-17T08:55:29.247Z,17.64
2022-10-17T09:01:13.079Z,17.89
2022-10-17T09:04:23.807Z,17.87
2022-10-17T09:07:14.800Z,18.08
2022-10-17T09:10:06.390Z,18.21
2022-10-17T09:12:58.207Z,18.27
2022-10-17T09:18:37.571Z,18.36
2022-10-17T09:21:29.093Z,18.47
2022-10-17T09:27:00.104Z,18.70
2022-10-17T09:29:50.547Z,18.65
2022-10-17T09:35:27.285Z,18.84
2022-10-17T09:38:20.774Z,18.81
2022-10-17T09:43:58.716Z,18.97
2022-10-17T09:49:51.076Z,19.27
2022-10-17T09:55:37.034Z,19.34
2022-10-17T09:58:52.650Z,19.49
2022-10-17T10:01:42.141Z,19.57
2022-10-17T10:07:14.075Z,19.65
2022-10-17T10:10:03.408Z,19.70
2022-10-17T10:15:55.076Z,19.82
2022-10-17T10:21:30.236Z,19.85
2022-10-17T10:24:20.274Z,19.82
2022-10-17T10:32:41.916Z,20.26
2022-10-17T10:35:34.713Z,20.31
2022-10-17T10:41:07.429Z,20.49
2022-10-17T10:47:10.556Z,20.64
2022-10-17T10:50:17.200Z,20.69
2022-10-17T10:53:16.315Z,20.80
2022-10-17T10:56:06.920Z,20.96
2022-10-17T10:59:01.369Z,21.05
2022-10-17T11:04:35.403Z,21.50
2022-10-17T11:07:27.392Z,21.49
2022-10-17T11:13:03.768Z,21.72
2022-10-17T11:18:33.072Z,22.05
2022-10-17T11:21:28.768Z,21.98
2022-10-17T11:29:54.047Z,22.13
2022-10-17T11:35:35.345Z,22.29
2022-10-17T11:41:17.158Z,22.23
2022-10-17T11:46:52.426Z,22.41
2022-10-17T11:53:03.664Z,22.60
2022-10-17T11:58:34.818Z,22.43
2022-10-17T12:07:23.496Z,22.30
2022-10-17T12:13:41.843Z,22.56
2022-10-17T12:19:50.041Z,22.69
2022-10-17T12:25:26.123Z,22.82
2022-10-17T12:28:17.729Z,22.77
2022-10-17T12:33:54.341Z,22.83
2022-10-17T12:36:43.713Z,22.83
2022-10-17T12:42:53.729Z,22.81
2022-10-17T12:49:05.818Z,22.80
2022-10-17T12:55:14.082Z,22.91
2022-10-17T12:58:04.689Z,22.80
2022-10-17T13:03:36.345Z,23.05
2022-10-17T13:06:26.987Z,23.07
2022-10-17T13:12:11.662Z,23.14
2022-10-17T13:17:43.903Z,23.07
2022-10-17T13:23:25.553Z,23.38
2022-10-17T13:29:06.630Z,23.42
2022-10-17T13:34:38.638Z,23.53
2022-10-17T13:40:40.453Z,23.47
2022-10-17T13:46:19.248Z,23.60
2022-10-17T13:48:54.037Z,23.56
2022-10-17T13:54:47.063Z,23.42
2022-10-17T14:03:09.872Z,23.65
2022-10-17T14:06:03.709Z,23.58
2022-10-17T14:11:42.095Z,23.67
2022-10-17T14:17:18.581Z,23.62
2022-10-17T14:25:44.340Z,23.37
2022-10-17T14:31:37.794Z,23.40
2022-10-17T14:37:33.727Z,23.39
2022-10-17T14:43:07.217Z,23.31
2022-10-17T14:46:00.817Z,23.16
2022-10-17T14:52:03.837Z,23.11
2022-10-17T14:57:40.257Z,23.00
2022-10-17T15:03:18.897Z,22.84
2022-10-17T15:09:05.261Z,22.67
2022-10-17T15:11:54.430Z,22.58
2022-10-17T15:14:43.247Z,22.43
2022-10-17T15:17:35.192Z,22.40
2022-10-17T15:23:07.181Z,22.35
2022-10-17T15:29:01.661Z,22.18
2022-10-17T15:31:51.658Z,22.06
2022-10-17T15:34:40.492Z,22.01
2022-10-17T15:37:31.261Z,21.88
2022-10-17T15:43:17.375Z,21.76
2022-10-17T15:48:49.158Z,21.60
2022-10-17T15:54:36.703Z,21.46
2022-10-17T15:57:27.578Z,21.35
2022-10-17T16:03:19.668Z,21.15
2022-10-17T16:08:56.845Z,20.98
2022-10-17T16:14:28.253Z,20.67
2022-10-17T16:20:04.534Z,20.57
2022-10-17T16:25:31.474Z,20.34
2022-10-17T16:31:20.302Z,20.15
2022-10-17T16:36:56.740Z,19.99
2022-10-17T16:42:32.928Z,19.83
2022-10-17T16:45:30.337Z,19.83
2022-10-17T16:51:07.847Z,19.82
2022-10-17T16:53:58.446Z,19.58
2022-10-17T16:59:34.776Z,19.40
2022-10-17T17:05:12.334Z,19.34
2022-10-17T17:10:51.550Z,19.23
2022-10-17T17:16:30.371Z,19.18
2022-10-17T17:22:07.388Z,18.84
2022-10-17T17:27:49.579Z,18.67
2022-10-17T17:33:28.403Z,18.78
2022-10-17T17:40:02.804Z,18.64
2022-10-17T17:48:19.429Z,18.44
2022-10-17T17:53:53.360Z,18.32
2022-10-17T17:59:31.126Z,18.20
2022-10-17T18:05:08.985Z,18.29
2022-10-17T18:10:44.583Z,18.05
2022-10-17T18:13:33.234Z,18.06
2022-10-17T18:19:11.762Z,18.24
2022-10-17T18:24:42.059Z,18.27
2022-10-17T18:30:16.328Z,17.97
2022-10-17T18:33:06.777Z,17.97
2022-10-17T18:38:39.631Z,17.76
2022-10-17T18:44:09.104Z,17.74
2022-10-17T18:47:55.552Z,17.64
2022-10-17T18:52:45.364Z,17.67
2022-10-17T18:58:18.694Z,17.44
2022-10-17T19:03:59.166Z,17.39
2022-10-17T19:09:36.541Z,17.55
2022-10-17T19:12:25.939Z,17.49
2022-10-17T19:18:19.579Z,17.30
2022-10-17T19:24:00.231Z,17.43
2022-10-17T19:29:44.172Z,17.22
2022-10-17T19:35:24.499Z,17.12
2022-10-17T19:40:54.821Z,17.06
2022-10-17T19:46:31.157Z,17.09
2022-10-17T19:52:14.890Z,16.97
2022-10-17T19:55:04.093Z,16.90
2022-10-17T20:00:49.230Z,16.88
2022-10-17T20:03:37.451Z,16.87
2022-10-17T20:06:26.286Z,16.83
2022-10-17T20:23:08.704Z,16.66
2022-10-17T20:28:47.679Z,16.65
2022-10-17T20:34:20.458Z,16.52
2022-10-17T20:40:33.213Z,16.46
2022-10-17T20:45:51.549Z,16.57
2022-10-17T20:51:20.902Z,16.38
2022-10-17T20:57:01.064Z,16.29
2022-10-17T20:59:48.386Z,16.21
2022-10-17T21:05:24.738Z,16.21
2022-10-17T21:11:11.316Z,16.22
2022-10-17T21:16:50.079Z,16.12
2022-10-17T21:22:20.803Z,16.21
2022-10-17T21:27:59.728Z,16.05
2022-10-17T21:33:40.585Z,15.99
2022-10-17T21:36:29.263Z,15.87
2022-10-17T21:42:06.946Z,15.92
2022-10-17T21:44:57.497Z,15.85
2022-10-17T21:48:11.112Z,15.88
2022-10-17T21:50:36.800Z,15.95
2022-10-17T21:56:14.845Z,15.77
2022-10-17T22:01:49.129Z,15.79
2022-10-17T22:04:37.154Z,15.74
2022-10-17T22:07:29.078Z,15.72
2022-10-17T22:10:20.672Z,15.73
2022-10-17T22:13:10.222Z,15.73
2022-10-17T22:18:49.084Z,15.71
2022-10-17T22:24:40.494Z,15.83
2022-10-17T22:30:37.101Z,15.60
2022-10-17T22:36:15.912Z,15.43
2022-10-17T22:41:45.849Z,15.63
2022-10-17T22:44:34.087Z,15.54
2022-10-17T22:47:22.334Z,15.41
2022-10-17T22:50:12.375Z,15.35
2022-10-17T22:53:02.073Z,15.31
2022-10-17T22:58:52.785Z,15.29
2022-10-17T23:01:41.300Z,15.31
2022-10-17T23:04:30.594Z,15.24
2022-10-17T23:10:12.921Z,15.24
2022-10-17T23:15:52.275Z,15.29
2022-10-17T23:21:28.477Z,15.10
2022-10-17T23:24:16.729Z,15.01
2022-10-17T23:29:58.358Z,15.07
2022-10-17T23:32:46.422Z,15.05
2022-10-17T23:35:35.216Z,15.12
2022-10-17T23:38:23.523Z,15.14
2022-10-17T23:41:11.708Z,15.23
2022-10-17T23:46:42.639Z,15.44
2022-10-17T23:52:31.674Z,15.59
2022-10-17T23:58:03.637Z,15.64
